Terminal Aerodrome Forecast
Issued by NWS Huntsville, AL

Home | Current Version | Previous Version | Text Only | Print | Product List | Glossary On
Versions: 1 2 3 4 5 6 7 8 9 10 11 12 13 14 15 16 17 18 19 20 21 22 23 24 25 26 27 28
000
FTUS44 KHUN 280520
TAFHSV
TAF
KHSV 280520Z 2806/2906 17005KT 6SM -TSRA BR SCT015CB BKN020 OVC035
      TEMPO 2806/2809 VRB15G30KT 2SM TSRA BR OVC010CB
     FM281000 17005KT P6SM VCTS BKN020CB
     FM281400 22011KT P6SM VCTS BKN025CB
     FM281700 25012KT P6SM SCT040 BKN150
     FM290100 20004KT P6SM SCT050=

USA.gov is the U.S. government's official web portal to all federal, state and local government web resources and services.